CCDAZ SCSE-SCEL
Flight info
| Callsign | CCDAZ |
|---|---|
| Flight time | 0h 39m |
| Altitude | 31000 |
| Route | N0433F310 EDRON5 EDRON UL302 SIMOK SIMO7B |
| Aircraft | C25C/M-SDE2E3FGHRWXY/LB1 |
Departure
| Time | 2026-04-17 11:23 |
|---|---|
| Airport | La Florida Airport (SCSE) |
Arrival
| Time | 2026-04-17 12:02 |
|---|---|
| Airport | Comodoro Arturo Merino Benítez International Airport (SCEL) |
| Time | Latitude | Longitude | Altitude | Speed | Heading |
|---|---|---|---|---|---|
| 2026-04-17 11:12 | -29.91719 | -71.20247 | 461 ft | 0 kts | 143° |
| 2026-04-17 11:18 | -29.91720 | -71.20246 | 461 ft | 1 kts | 127° |
| 2026-04-17 11:18 | -29.91712 | -71.20226 | 461 ft | 7 kts | 48° |
| 2026-04-17 11:18 | -29.91677 | -71.20178 | 461 ft | 8 kts | 58° |
| 2026-04-17 11:19 | -29.91625 | -71.20129 | 458 ft | 12 kts | 24° |
| 2026-04-17 11:19 | -29.91606 | -71.20047 | 457 ft | 13 kts | 116° |
| 2026-04-17 11:19 | -29.91657 | -71.19927 | 460 ft | 21 kts | 116° |
| 2026-04-17 11:19 | -29.91734 | -71.19750 | 464 ft | 28 kts | 116° |
| 2026-04-17 11:20 | -29.91826 | -71.19537 | 471 ft | 31 kts | 116° |
| 2026-04-17 11:20 | -29.91918 | -71.19328 | 477 ft | 27 kts | 117° |
| 2026-04-17 11:20 | -29.91999 | -71.19143 | 478 ft | 22 kts | 124° |
| 2026-04-17 11:20 | -29.92035 | -71.19080 | 479 ft | 6 kts | 21° |
| 2026-04-17 11:21 | -29.92012 | -71.19103 | 479 ft | 5 kts | 295° |
| 2026-04-17 11:21 | -29.92011 | -71.19106 | 480 ft | 0 kts | 296° |
| 2026-04-17 11:22 | -29.91999 | -71.19134 | 479 ft | 16 kts | 296° |
| 2026-04-17 11:22 | -29.91790 | -71.19619 | 470 ft | 123 kts | 296° |
| 2026-04-17 11:23 | -29.91354 | -71.20623 | 1095 ft | 150 kts | 296° |
| 2026-04-17 11:23 | -29.90876 | -71.21781 | 1991 ft | 168 kts | 295° |
| 2026-04-17 11:23 | -29.90364 | -71.23066 | 2858 ft | 182 kts | 290° |
| 2026-04-17 11:23 | -29.90333 | -71.24588 | 3697 ft | 206 kts | 257° |
| 2026-04-17 11:24 | -29.91075 | -71.26069 | 4556 ft | 231 kts | 221° |
| 2026-04-17 11:24 | -29.92588 | -71.26873 | 5421 ft | 252 kts | 189° |
| 2026-04-17 11:24 | -29.94404 | -71.27106 | 6318 ft | 271 kts | 184° |
| 2026-04-17 11:24 | -29.96319 | -71.27238 | 7193 ft | 286 kts | 184° |
| 2026-04-17 11:25 | -29.98344 | -71.27442 | 8214 ft | 294 kts | 186° |
| 2026-04-17 11:25 | -30.00391 | -71.27681 | 9210 ft | 303 kts | 187° |
| 2026-04-17 11:25 | -30.02527 | -71.27934 | 10205 ft | 312 kts | 187° |
| 2026-04-17 11:25 | -30.04774 | -71.28178 | 10791 ft | 335 kts | 187° |
| 2026-04-17 11:26 | -30.07160 | -71.28445 | 11165 ft | 357 kts | 187° |
| 2026-04-17 11:26 | -30.09661 | -71.28638 | 12136 ft | 357 kts | 182° |
| 2026-04-17 11:26 | -30.12119 | -71.28683 | 13025 ft | 358 kts | 185° |
| 2026-04-17 11:26 | -30.14615 | -71.28803 | 13916 ft | 359 kts | 185° |
| 2026-04-17 11:27 | -30.17140 | -71.28895 | 14689 ft | 361 kts | 185° |
| 2026-04-17 11:27 | -30.19640 | -71.28961 | 15439 ft | 364 kts | 185° |
| 2026-04-17 11:27 | -30.22182 | -71.29032 | 16166 ft | 366 kts | 186° |
| 2026-04-17 11:27 | -30.24751 | -71.29116 | 16887 ft | 368 kts | 187° |
| 2026-04-17 11:28 | -30.27303 | -71.29201 | 17607 ft | 370 kts | 187° |
| 2026-04-17 11:28 | -30.29910 | -71.29279 | 18305 ft | 373 kts | 188° |
| 2026-04-17 11:28 | -30.32487 | -71.29360 | 18891 ft | 374 kts | 188° |
| 2026-04-17 11:28 | -30.35108 | -71.29439 | 19482 ft | 377 kts | 188° |
| 2026-04-17 11:29 | -30.37752 | -71.29522 | 20076 ft | 379 kts | 188° |
| 2026-04-17 11:29 | -30.40376 | -71.29606 | 20713 ft | 381 kts | 188° |
| 2026-04-17 11:29 | -30.43031 | -71.29688 | 21319 ft | 384 kts | 188° |
| 2026-04-17 11:29 | -30.45728 | -71.29770 | 21927 ft | 386 kts | 188° |
| 2026-04-17 11:30 | -30.48405 | -71.29857 | 22483 ft | 389 kts | 188° |
| 2026-04-17 11:30 | -30.51128 | -71.29939 | 23040 ft | 391 kts | 189° |
| 2026-04-17 11:30 | -30.53871 | -71.29969 | 23555 ft | 399 kts | 184° |
| 2026-04-17 11:30 | -30.56613 | -71.29262 | 23992 ft | 416 kts | 169° |
| 2026-04-17 11:31 | -30.59274 | -71.27798 | 24460 ft | 425 kts | 159° |
| 2026-04-17 11:31 | -30.61901 | -71.26159 | 24924 ft | 426 kts | 159° |
| 2026-04-17 11:31 | -30.64475 | -71.24528 | 25378 ft | 427 kts | 160° |
| 2026-04-17 11:31 | -30.67115 | -71.22884 | 25820 ft | 428 kts | 160° |
| 2026-04-17 11:32 | -30.69731 | -71.21265 | 26249 ft | 429 kts | 160° |
| 2026-04-17 11:32 | -30.72391 | -71.19613 | 26673 ft | 430 kts | 160° |
| 2026-04-17 11:32 | -30.75010 | -71.17973 | 27073 ft | 431 kts | 161° |
| 2026-04-17 11:32 | -30.77666 | -71.16313 | 27420 ft | 432 kts | 161° |
| 2026-04-17 11:33 | -30.80370 | -71.14911 | 27744 ft | 420 kts | 172° |
| 2026-04-17 11:33 | -30.83196 | -71.14040 | 28091 ft | 418 kts | 174° |
| 2026-04-17 11:33 | -30.85969 | -71.13163 | 28590 ft | 414 kts | 174° |
| 2026-04-17 11:33 | -30.88754 | -71.12302 | 29082 ft | 411 kts | 175° |
| 2026-04-17 11:34 | -30.91485 | -71.11467 | 29623 ft | 407 kts | 175° |
| 2026-04-17 11:34 | -30.94226 | -71.10619 | 30195 ft | 404 kts | 175° |
| 2026-04-17 11:34 | -30.96909 | -71.09783 | 30660 ft | 401 kts | 175° |
| 2026-04-17 11:34 | -30.99607 | -71.08944 | 30999 ft | 401 kts | 176° |
| 2026-04-17 11:35 | -31.05074 | -71.07260 | 31073 ft | 412 kts | 175° |
| 2026-04-17 11:35 | -31.10582 | -71.05533 | 31082 ft | 409 kts | 176° |
| 2026-04-17 11:36 | -31.16084 | -71.03827 | 31085 ft | 408 kts | 175° |
| 2026-04-17 11:36 | -31.21585 | -71.02112 | 31096 ft | 407 kts | 176° |
| 2026-04-17 11:37 | -31.27024 | -71.00417 | 31094 ft | 407 kts | 176° |
| 2026-04-17 11:37 | -31.32519 | -70.98698 | 31096 ft | 407 kts | 176° |
| 2026-04-17 11:38 | -31.37970 | -70.96997 | 31100 ft | 406 kts | 176° |
| 2026-04-17 11:38 | -31.43414 | -70.95291 | 31107 ft | 406 kts | 176° |
| 2026-04-17 11:39 | -31.48907 | -70.93567 | 31106 ft | 406 kts | 176° |
| 2026-04-17 11:39 | -31.54359 | -70.91856 | 31101 ft | 405 kts | 176° |
| 2026-04-17 11:40 | -31.59779 | -70.90154 | 31107 ft | 405 kts | 176° |
| 2026-04-17 11:40 | -31.65239 | -70.88434 | 31111 ft | 404 kts | 176° |
| 2026-04-17 11:41 | -31.70680 | -70.86724 | 31107 ft | 405 kts | 176° |
| 2026-04-17 11:41 | -31.76118 | -70.85408 | 31089 ft | 394 kts | 184° |
| 2026-04-17 11:42 | -31.78869 | -70.85169 | 30663 ft | 395 kts | 188° |
| 2026-04-17 11:42 | -31.81634 | -70.85089 | 30134 ft | 402 kts | 188° |
| 2026-04-17 11:42 | -31.84435 | -70.84985 | 29568 ft | 407 kts | 188° |
| 2026-04-17 11:42 | -31.87275 | -70.84874 | 29033 ft | 405 kts | 188° |
| 2026-04-17 11:43 | -31.90066 | -70.84768 | 28495 ft | 402 kts | 188° |
| 2026-04-17 11:43 | -31.92838 | -70.84676 | 27974 ft | 400 kts | 188° |
| 2026-04-17 11:43 | -31.95646 | -70.84579 | 27439 ft | 400 kts | 188° |
| 2026-04-17 11:43 | -31.98413 | -70.84482 | 26916 ft | 401 kts | 188° |
| 2026-04-17 11:44 | -32.01222 | -70.84381 | 26385 ft | 403 kts | 188° |
| 2026-04-17 11:44 | -32.04040 | -70.84279 | 25843 ft | 404 kts | 187° |
| 2026-04-17 11:44 | -32.06824 | -70.84181 | 25325 ft | 406 kts | 187° |
| 2026-04-17 11:44 | -32.09669 | -70.84080 | 24783 ft | 408 kts | 187° |
| 2026-04-17 11:45 | -32.12526 | -70.83977 | 24241 ft | 411 kts | 187° |
| 2026-04-17 11:45 | -32.15365 | -70.83876 | 23706 ft | 411 kts | 187° |
| 2026-04-17 11:45 | -32.18219 | -70.83768 | 23113 ft | 406 kts | 186° |
| 2026-04-17 11:45 | -32.21025 | -70.83666 | 22580 ft | 400 kts | 186° |
| 2026-04-17 11:46 | -32.23786 | -70.83572 | 22056 ft | 397 kts | 186° |
| 2026-04-17 11:46 | -32.26557 | -70.83472 | 21535 ft | 396 kts | 186° |
| 2026-04-17 11:46 | -32.29313 | -70.83376 | 21004 ft | 394 kts | 186° |
| 2026-04-17 11:46 | -32.32023 | -70.83274 | 20494 ft | 392 kts | 185° |
| 2026-04-17 11:47 | -32.34739 | -70.83179 | 19984 ft | 391 kts | 185° |
| 2026-04-17 11:47 | -32.37464 | -70.83081 | 19462 ft | 388 kts | 185° |
| 2026-04-17 11:47 | -32.40162 | -70.82985 | 18948 ft | 384 kts | 184° |
| 2026-04-17 11:47 | -32.42812 | -70.82886 | 18445 ft | 382 kts | 184° |
| 2026-04-17 11:48 | -32.45446 | -70.82793 | 17904 ft | 379 kts | 184° |
| 2026-04-17 11:48 | -32.47203 | -70.82729 | 17571 ft | 376 kts | 183° |
| 2026-04-17 11:48 | -32.50674 | -70.82606 | 16910 ft | 373 kts | 183° |
| 2026-04-17 11:48 | -32.52397 | -70.82541 | 16585 ft | 373 kts | 183° |
| 2026-04-17 11:49 | -32.55015 | -70.82451 | 16018 ft | 375 kts | 183° |
| 2026-04-17 11:49 | -32.57611 | -70.82358 | 15515 ft | 376 kts | 182° |
| 2026-04-17 11:49 | -32.60227 | -70.82259 | 15022 ft | 373 kts | 182° |
| 2026-04-17 11:49 | -32.62817 | -70.82167 | 14533 ft | 368 kts | 182° |
| 2026-04-17 11:50 | -32.65343 | -70.82073 | 14049 ft | 362 kts | 182° |
| 2026-04-17 11:50 | -32.67853 | -70.81983 | 13549 ft | 357 kts | 182° |
| 2026-04-17 11:50 | -32.70299 | -70.81895 | 13079 ft | 352 kts | 182° |
| 2026-04-17 11:50 | -32.72726 | -70.81809 | 12618 ft | 348 kts | 181° |
| 2026-04-17 11:51 | -32.75150 | -70.81718 | 12159 ft | 343 kts | 181° |
| 2026-04-17 11:51 | -32.77474 | -70.81632 | 11718 ft | 319 kts | 181° |
| 2026-04-17 11:51 | -32.79600 | -70.81552 | 11314 ft | 299 kts | 181° |
| 2026-04-17 11:51 | -32.81643 | -70.81481 | 10926 ft | 287 kts | 181° |
| 2026-04-17 11:52 | -32.83629 | -70.81413 | 10544 ft | 285 kts | 181° |
| 2026-04-17 11:52 | -32.85602 | -70.81341 | 10181 ft | 284 kts | 180° |
| 2026-04-17 11:52 | -32.87567 | -70.81272 | 9795 ft | 283 kts | 180° |
| 2026-04-17 11:52 | -32.89535 | -70.81197 | 9408 ft | 281 kts | 180° |
| 2026-04-17 11:53 | -32.91480 | -70.81127 | 9039 ft | 278 kts | 180° |
| 2026-04-17 11:53 | -32.93375 | -70.81338 | 8675 ft | 275 kts | 190° |
| 2026-04-17 11:53 | -32.95279 | -70.81630 | 8310 ft | 273 kts | 188° |
| 2026-04-17 11:53 | -32.97147 | -70.81897 | 7953 ft | 272 kts | 188° |
| 2026-04-17 11:54 | -32.99028 | -70.82174 | 7597 ft | 271 kts | 188° |
| 2026-04-17 11:54 | -33.00885 | -70.82382 | 7236 ft | 270 kts | 179° |
| 2026-04-17 11:54 | -33.02774 | -70.82244 | 6880 ft | 269 kts | 177° |
| 2026-04-17 11:54 | -33.04625 | -70.82163 | 6567 ft | 266 kts | 177° |
| 2026-04-17 11:55 | -33.06489 | -70.82068 | 6516 ft | 265 kts | 176° |
| 2026-04-17 11:55 | -33.08326 | -70.81960 | 6503 ft | 263 kts | 176° |
| 2026-04-17 11:55 | -33.10136 | -70.81851 | 6503 ft | 260 kts | 176° |
| 2026-04-17 11:55 | -33.11877 | -70.81751 | 6392 ft | 243 kts | 176° |
| 2026-04-17 11:56 | -33.13529 | -70.81647 | 6110 ft | 231 kts | 176° |
| 2026-04-17 11:56 | -33.15116 | -70.81560 | 5812 ft | 224 kts | 176° |
| 2026-04-17 11:56 | -33.16640 | -70.81480 | 5528 ft | 218 kts | 176° |
| 2026-04-17 11:56 | -33.18149 | -70.81400 | 5241 ft | 214 kts | 176° |
| 2026-04-17 11:57 | -33.19635 | -70.81321 | 4965 ft | 211 kts | 176° |
| 2026-04-17 11:57 | -33.21075 | -70.81246 | 4691 ft | 208 kts | 176° |
| 2026-04-17 11:57 | -33.22510 | -70.81170 | 4420 ft | 203 kts | 176° |
| 2026-04-17 11:57 | -33.23901 | -70.81095 | 4154 ft | 200 kts | 176° |
| 2026-04-17 11:58 | -33.25271 | -70.81022 | 3896 ft | 196 kts | 176° |
| 2026-04-17 11:58 | -33.26606 | -70.80953 | 3638 ft | 181 kts | 176° |
| 2026-04-17 11:58 | -33.27804 | -70.80882 | 3415 ft | 162 kts | 175° |
| 2026-04-17 11:58 | -33.28800 | -70.80830 | 3228 ft | 132 kts | 177° |
| 2026-04-17 11:59 | -33.29668 | -70.80781 | 3045 ft | 118 kts | 176° |
| 2026-04-17 11:59 | -33.30461 | -70.80741 | 2854 ft | 114 kts | 177° |
| 2026-04-17 11:59 | -33.31249 | -70.80718 | 2729 ft | 112 kts | 176° |
| 2026-04-17 11:59 | -33.32021 | -70.80663 | 2629 ft | 111 kts | 174° |
| 2026-04-17 12:00 | -33.32797 | -70.80613 | 2478 ft | 112 kts | 175° |
| 2026-04-17 12:00 | -33.33566 | -70.80577 | 2320 ft | 111 kts | 175° |
| 2026-04-17 12:00 | -33.34331 | -70.80529 | 2168 ft | 108 kts | 174° |
| 2026-04-17 12:00 | -33.35064 | -70.80496 | 2063 ft | 105 kts | 175° |
| 2026-04-17 12:01 | -33.35803 | -70.80454 | 1919 ft | 106 kts | 174° |
| 2026-04-17 12:01 | -33.36540 | -70.80411 | 1754 ft | 107 kts | 174° |
| 2026-04-17 12:01 | -33.37287 | -70.80370 | 1605 ft | 106 kts | 175° |
| 2026-04-17 12:01 | -33.37942 | -70.80334 | 1566 ft | 83 kts | 177° |
| 2026-04-17 12:02 | -33.38457 | -70.80307 | 1567 ft | 68 kts | 177° |
| 2026-04-17 12:02 | -33.38905 | -70.80282 | 1568 ft | 60 kts | 178° |
| 2026-04-17 12:02 | -33.39203 | -70.80258 | 1566 ft | 35 kts | 167° |
| 2026-04-17 12:02 | -33.39385 | -70.80158 | 1563 ft | 23 kts | 148° |
| 2026-04-17 12:03 | -33.39514 | -70.80042 | 1560 ft | 23 kts | 122° |
| 2026-04-17 12:03 | -33.39528 | -70.79855 | 1559 ft | 23 kts | 87° |
| 2026-04-17 12:03 | -33.39520 | -70.79664 | 1558 ft | 23 kts | 87° |
| 2026-04-17 12:03 | -33.39513 | -70.79481 | 1558 ft | 22 kts | 87° |
| 2026-04-17 12:04 | -33.39505 | -70.79298 | 1558 ft | 22 kts | 87° |
| 2026-04-17 12:04 | -33.39489 | -70.79149 | 1558 ft | 13 kts | 47° |
| 2026-04-17 12:04 | -33.39387 | -70.79141 | 1558 ft | 17 kts | 356° |
| 2026-04-17 12:04 | -33.39267 | -70.79142 | 1558 ft | 18 kts | 357° |
| 2026-04-17 12:05 | -33.39213 | -70.79159 | 1558 ft | 9 kts | 282° |
| 2026-04-17 12:05 | -33.39224 | -70.79193 | 1558 ft | 2 kts | 206° |
| 2026-04-17 12:05 | -33.39221 | -70.79198 | 1558 ft | 1 kts | 4° |
| 2026-04-17 12:05 | -33.39220 | -70.79197 | 1558 ft | 0 kts | 38° |